createdAt,value
2023-04-21T00:01:05.221Z,49.9
2023-04-21T00:02:48.597Z,49.9
2023-04-21T00:04:31.995Z,49.9
2023-04-21T00:06:15.401Z,49.9
2023-04-21T00:07:58.800Z,49.9
2023-04-21T00:09:42.187Z,49.9
2023-04-21T00:11:25.593Z,49.9
2023-04-21T00:13:08.989Z,49.9
2023-04-21T00:16:35.469Z,49.9
2023-04-21T00:18:18.849Z,49.9
2023-04-21T00:20:02.247Z,49.9
2023-04-21T00:21:45.648Z,49.9
2023-04-21T00:23:29.066Z,49.9
2023-04-21T00:25:12.433Z,49.8
2023-04-21T00:26:55.843Z,49.9
2023-04-21T00:28:39.223Z,49.9
2023-04-21T00:32:05.696Z,49.8
2023-04-21T00:33:49.143Z,49.9
2023-04-21T00:35:32.576Z,49.9
2023-04-21T00:37:15.892Z,49.9
2023-04-21T00:38:59.292Z,49.8
2023-04-21T00:40:42.678Z,49.9
2023-04-21T00:42:26.081Z,49.9
2023-04-21T00:44:09.491Z,49.8
2023-04-21T00:47:35.968Z,49.9
2023-04-21T00:49:19.353Z,49.9
2023-04-21T00:51:02.733Z,49.8
2023-04-21T00:52:46.138Z,49.8
2023-04-21T00:54:29.529Z,49.9
2023-04-21T00:56:12.923Z,49.8
2023-04-21T00:57:56.315Z,49.9
2023-04-21T00:59:39.725Z,49.9
2023-04-21T01:01:23.134Z,49.8
2023-04-21T01:04:49.591Z,49.8
2023-04-21T01:06:32.986Z,49.8
2023-04-21T01:08:16.389Z,49.9
2023-04-21T01:09:59.768Z,49.9
2023-04-21T01:11:43.235Z,49.9
2023-04-21T01:13:26.583Z,49.8
2023-04-21T01:15:09.952Z,49.9
2023-04-21T01:16:53.353Z,49.9
2023-04-21T01:18:36.761Z,49.9
2023-04-21T01:20:20.464Z,49.9
2023-04-21T01:22:03.858Z,49.9
2023-04-21T01:23:47.255Z,49.8
2023-04-21T01:25:30.673Z,49.8
2023-04-21T01:27:14.037Z,49.8
2023-04-21T01:28:57.448Z,49.9
2023-04-21T01:30:40.841Z,49.9
2023-04-21T01:32:24.261Z,49.8
2023-04-21T01:35:50.705Z,49.8
2023-04-21T01:37:34.103Z,49.8
2023-04-21T01:39:17.493Z,49.8
2023-04-21T01:41:00.889Z,49.8
2023-04-21T01:42:44.297Z,49.8
2023-04-21T01:44:27.700Z,49.8
2023-04-21T01:46:11.115Z,49.8
2023-04-21T01:47:54.486Z,49.8
2023-04-21T01:51:20.950Z,49.8
2023-04-21T01:53:04.363Z,49.8
2023-04-21T01:54:47.753Z,49.8
2023-04-21T01:56:31.315Z,49.8
2023-04-21T01:58:14.666Z,49.8
2023-04-21T01:59:57.952Z,49.8
2023-04-21T02:01:41.330Z,49.8
2023-04-21T02:03:24.745Z,49.8
2023-04-21T02:06:51.204Z,49.8
2023-04-21T02:08:34.609Z,49.8
2023-04-21T02:10:18.005Z,49.8
2023-04-21T02:12:01.396Z,49.7
2023-04-21T02:13:44.794Z,49.7
2023-04-21T02:15:28.173Z,49.7
2023-04-21T02:17:11.587Z,49.7
2023-04-21T02:22:20.812Z,49.7
2023-04-21T02:24:04.209Z,49.7
2023-04-21T02:25:47.619Z,49.7
2023-04-21T02:27:31.017Z,49.8
2023-04-21T02:29:14.402Z,49.7
2023-04-21T02:30:57.795Z,49.8
2023-04-21T02:32:41.201Z,49.7
2023-04-21T02:34:24.589Z,49.7
2023-04-21T02:36:08.296Z,49.7
2023-04-21T02:37:51.741Z,49.7
2023-04-21T02:39:35.100Z,49.7
2023-04-21T02:41:18.483Z,49.7
2023-04-21T02:43:01.884Z,49.7
2023-04-21T02:44:45.282Z,49.7
2023-04-21T02:46:28.664Z,49.7
2023-04-21T02:48:12.073Z,49.7
2023-04-21T02:51:38.536Z,49.7
2023-04-21T02:53:21.927Z,49.7
2023-04-21T02:55:05.330Z,49.6
2023-04-21T02:56:48.732Z,49.6
2023-04-21T02:58:32.120Z,49.6
2023-04-21T03:00:15.513Z,49.6
2023-04-21T03:01:59.014Z,49.6
2023-04-21T03:03:42.305Z,49.5
2023-04-21T03:07:08.803Z,49.5
2023-04-21T03:08:52.198Z,49.6
2023-04-21T03:12:18.980Z,49.6
2023-04-21T03:14:02.370Z,49.6
2023-04-21T03:15:45.755Z,49.5
2023-04-21T03:17:29.157Z,49.5
2023-04-21T03:19:12.547Z,49.5
2023-04-21T03:24:21.810Z,49.5
2023-04-21T03:26:05.194Z,49.6
2023-04-21T03:27:48.594Z,49.5
2023-04-21T03:29:31.991Z,49.5
2023-04-21T03:31:15.398Z,49.5
2023-04-21T03:32:58.797Z,49.5
2023-04-21T03:34:42.188Z,49.5
2023-04-21T03:36:25.574Z,49.5
2023-04-21T03:39:52.096Z,49.4
2023-04-21T03:41:35.436Z,49.4
2023-04-21T03:43:18.851Z,49.5
2023-04-21T03:45:02.262Z,49.4
2023-04-21T03:46:45.627Z,49.4
2023-04-21T03:48:29.027Z,49.4
2023-04-21T03:50:12.432Z,49.4
2023-04-21T03:51:55.845Z,49.4
2023-04-21T03:57:05.070Z,49.3
2023-04-21T03:58:48.473Z,49.3
2023-04-21T04:00:31.858Z,49.3
2023-04-21T04:02:15.259Z,49.3
2023-04-21T04:03:58.652Z,49.3
2023-04-21T04:05:42.051Z,49.3
2023-04-21T04:07:25.440Z,49.3
2023-04-21T04:09:08.834Z,49.3
2023-04-21T04:12:35.321Z,49.3
2023-04-21T04:14:18.715Z,49.3
2023-04-21T04:16:02.126Z,49.3
2023-04-21T04:17:45.502Z,49.3
2023-04-21T04:19:28.898Z,49.3
2023-04-21T04:21:12.298Z,49.3
2023-04-21T04:22:55.704Z,49.3
2023-04-21T04:24:39.113Z,49.3
2023-04-21T04:26:22.501Z,49.3
2023-04-21T04:28:06.185Z,49.2
2023-04-21T04:29:49.567Z,49.2
2023-04-21T04:31:32.981Z,49.3
2023-04-21T04:33:16.372Z,49.2
2023-04-21T04:34:59.767Z,49.3
2023-04-21T04:36:43.178Z,49.2
2023-04-21T04:38:26.559Z,49.2
2023-04-21T04:40:09.957Z,49.2
2023-04-21T04:41:53.350Z,49.2
2023-04-21T04:43:37.068Z,49.2
2023-04-21T04:45:20.455Z,49.2
2023-04-21T04:47:03.853Z,49.2
2023-04-21T04:48:47.239Z,49.2
2023-04-21T04:50:30.646Z,49.3
2023-04-21T04:52:14.037Z,49.2
2023-04-21T04:53:57.437Z,49.3
2023-04-21T04:55:40.825Z,49.2
2023-04-21T05:00:50.165Z,49.2
2023-04-21T05:02:33.484Z,49.2
2023-04-21T05:04:16.862Z,49.2
2023-04-21T05:06:00.264Z,49.1
2023-04-21T05:07:43.656Z,49.1
2023-04-21T05:09:27.116Z,49.1
2023-04-21T05:11:10.434Z,49.2
2023-04-21T05:12:53.841Z,49.2
2023-04-21T05:16:20.350Z,49.2
2023-04-21T05:18:03.734Z,49.2
2023-04-21T05:19:47.191Z,49.2
2023-04-21T05:21:30.512Z,49.2
2023-04-21T05:23:13.897Z,49.2
2023-04-21T05:24:57.296Z,49.2
2023-04-21T05:26:40.682Z,49.1
2023-04-21T05:28:24.110Z,49.2
2023-04-21T05:33:33.439Z,49.2
2023-04-21T05:35:16.763Z,49.2
2023-04-21T05:37:00.129Z,49.2
2023-04-21T05:38:43.552Z,49.2
2023-04-21T05:40:26.913Z,49.2
2023-04-21T05:42:10.310Z,49.2
2023-04-21T05:43:53.703Z,49.2
2023-04-21T05:45:37.186Z,49.2
2023-04-21T05:49:03.581Z,49.2
2023-04-21T05:50:47.010Z,49.2
2023-04-21T05:52:30.376Z,49.1
2023-04-21T05:54:13.764Z,49.1
2023-04-21T05:55:57.164Z,49.1
2023-04-21T05:57:40.560Z,49.1
2023-04-21T05:59:23.966Z,49.1
2023-04-21T06:01:07.368Z,49.2
2023-04-21T06:04:33.833Z,49.1
2023-04-21T06:06:17.211Z,49.2
2023-04-21T06:08:00.667Z,49.1
2023-04-21T06:09:44.101Z,49.2
2023-04-21T06:11:27.403Z,49.1
2023-04-21T06:13:10.794Z,49.1
2023-04-21T06:14:54.216Z,49.1
2023-04-21T06:16:37.595Z,49.2
2023-04-21T06:20:04.135Z,49.2
2023-04-21T06:21:47.466Z,49.2
2023-04-21T06:23:30.906Z,49.2
2023-04-21T06:25:14.270Z,49.1
2023-04-21T06:26:57.671Z,49.1
2023-04-21T06:28:41.094Z,49.2
2023-04-21T06:30:24.506Z,49.2
2023-04-21T06:32:07.981Z,49.2
2023-04-21T06:35:34.401Z,49.2
2023-04-21T06:37:17.768Z,49.2
2023-04-21T06:39:01.146Z,49
2023-04-21T06:40:44.590Z,49.1
2023-04-21T06:42:27.927Z,49.1
2023-04-21T06:44:11.386Z,49.1
2023-04-21T06:45:54.815Z,49.1
2023-04-21T06:47:38.111Z,49.1
2023-04-21T06:49:21.832Z,49.1
2023-04-21T06:51:05.194Z,49.1
2023-04-21T06:52:48.626Z,49.1
2023-04-21T06:54:32.066Z,49.1
2023-04-21T06:56:15.383Z,49.1
2023-04-21T06:57:58.792Z,49.1
2023-04-21T06:59:43.109Z,49.2
2023-04-21T07:01:25.585Z,49.2
2023-04-21T07:03:08.964Z,49.2
2023-04-21T07:04:52.686Z,49.2
2023-04-21T07:06:36.085Z,49.2
2023-04-21T07:08:19.475Z,49.2
2023-04-21T07:10:02.866Z,49.2
2023-04-21T07:11:46.284Z,49.1
2023-04-21T07:13:29.660Z,49.1
2023-04-21T07:15:13.133Z,49.1
2023-04-21T07:16:56.451Z,49.1
2023-04-21T07:22:05.689Z,49
2023-04-21T07:23:49.124Z,48.9
2023-04-21T07:25:32.652Z,48.8
2023-04-21T07:27:16.001Z,48.8
2023-04-21T07:28:59.433Z,48.8
2023-04-21T07:30:42.679Z,48.8
2023-04-21T07:32:26.103Z,48.7
2023-04-21T07:35:52.659Z,48.7
2023-04-21T07:37:35.953Z,48.8
2023-04-21T07:39:19.366Z,48.7
2023-04-21T07:41:02.845Z,48.7
2023-04-21T07:42:46.131Z,48.7
2023-04-21T07:44:29.588Z,48.6
2023-04-21T07:46:13.067Z,48.7
2023-04-21T07:47:56.393Z,48.7
2023-04-21T07:51:22.786Z,49.1
2023-04-21T07:53:06.407Z,48.9
2023-04-21T07:54:49.652Z,48.6
2023-04-21T07:56:33.080Z,48.6
2023-04-21T07:58:16.512Z,48.5
2023-04-21T07:59:59.788Z,48.5
2023-04-21T08:01:43.185Z,48.4
2023-04-21T08:06:52.409Z,48.5
2023-04-21T08:08:35.874Z,48.4
2023-04-21T08:10:19.368Z,48.4
2023-04-21T08:12:02.601Z,48.2
2023-04-21T08:13:46.021Z,48.1
2023-04-21T08:15:29.511Z,48
2023-04-21T08:17:12.950Z,48
2023-04-21T08:20:39.256Z,48.1
2023-04-21T08:22:22.808Z,48.1
2023-04-21T08:24:06.076Z,48.2
2023-04-21T08:25:49.446Z,48.1
2023-04-21T08:27:32.847Z,48
2023-04-21T08:29:16.249Z,48.1
2023-04-21T08:30:59.642Z,48.1
2023-04-21T08:32:43.053Z,48.1
2023-04-21T08:34:26.791Z,48.1
2023-04-21T08:36:10.227Z,48.1
2023-04-21T08:37:53.663Z,48.1
2023-04-21T08:39:36.991Z,48.1
2023-04-21T08:41:20.352Z,48.1
2023-04-21T08:43:03.830Z,48
2023-04-21T08:44:47.127Z,48.1
2023-04-21T08:46:30.513Z,48
2023-04-21T08:49:57.178Z,48
2023-04-21T08:51:40.545Z,48
2023-04-21T08:53:23.869Z,48
2023-04-21T08:55:07.231Z,48
2023-04-21T08:56:50.621Z,48
2023-04-21T08:58:34.029Z,48
2023-04-21T09:00:17.405Z,48
2023-04-21T09:02:00.954Z,48
2023-04-21T09:05:27.254Z,48
2023-04-21T09:07:10.668Z,48
2023-04-21T09:08:54.114Z,48
2023-04-21T09:10:37.455Z,48
2023-04-21T09:12:20.916Z,48
2023-04-21T09:14:04.213Z,48.1
2023-04-21T09:15:47.624Z,48.1
2023-04-21T09:17:31.073Z,48.1
2023-04-21T09:20:57.477Z,48.1
2023-04-21T09:22:40.910Z,48.1
2023-04-21T09:24:24.261Z,48.1
2023-04-21T09:26:07.708Z,48.1
2023-04-21T09:27:51.132Z,48.1
2023-04-21T09:29:34.516Z,48.1
2023-04-21T09:31:17.936Z,48.2
2023-04-21T09:33:01.246Z,48.5
2023-04-21T09:36:27.712Z,49.3
2023-04-21T09:38:11.112Z,49
2023-04-21T09:39:54.515Z,49.3
2023-04-21T09:41:37.913Z,49
2023-04-21T09:43:21.295Z,49
2023-04-21T09:45:04.717Z,49
2023-04-21T09:46:48.113Z,48.8
2023-04-21T09:48:31.616Z,48.9
2023-04-21T09:50:15.196Z,48.9
2023-04-21T09:51:58.592Z,49.1
2023-04-21T09:53:41.991Z,48.8
2023-04-21T09:55:25.377Z,48.9
2023-04-21T09:57:08.942Z,48.8
2023-04-21T09:58:52.237Z,48.9
2023-04-21T10:00:35.632Z,48.9
2023-04-21T10:02:19.025Z,48.8
2023-04-21T10:04:02.757Z,48.8
2023-04-21T10:05:46.122Z,48.9
2023-04-21T10:07:29.541Z,48.9
2023-04-21T10:09:12.850Z,48.9
2023-04-21T10:10:56.332Z,49
2023-04-21T10:12:39.705Z,49
2023-04-21T10:14:23.117Z,49.1
2023-04-21T10:19:32.369Z,49.2
2023-04-21T10:21:15.692Z,49.2
2023-04-21T10:22:59.093Z,49.2
2023-04-21T10:24:42.494Z,49.2
2023-04-21T10:26:25.897Z,49.3
2023-04-21T10:28:09.332Z,49.3
2023-04-21T10:29:52.656Z,49.4
2023-04-21T10:31:36.162Z,49.3
2023-04-21T10:33:19.763Z,49.4
2023-04-21T10:35:03.295Z,49.5
2023-04-21T10:36:46.603Z,49.4
2023-04-21T10:38:29.943Z,49.5
2023-04-21T10:40:13.430Z,49.4
2023-04-21T10:41:56.819Z,49.5
2023-04-21T10:43:40.141Z,49.5
2023-04-21T10:45:23.582Z,49.4
2023-04-21T10:47:07.245Z,49.4
2023-04-21T10:48:50.646Z,49.3
2023-04-21T10:50:34.159Z,49.3
2023-04-21T10:52:17.470Z,49.3
2023-04-21T10:54:00.898Z,49.3
2023-04-21T10:55:44.341Z,49.2
2023-04-21T10:57:27.644Z,49.2
2023-04-21T10:59:11.013Z,49.2
2023-04-21T11:00:54.732Z,49.4
2023-04-21T11:02:38.114Z,49.4
2023-04-21T11:04:21.510Z,49.3
2023-04-21T11:06:04.905Z,49.3
2023-04-21T11:07:48.346Z,49.2
2023-04-21T11:09:31.713Z,49.2
2023-04-21T11:11:15.084Z,49.2
2023-04-21T11:12:58.506Z,49.2
2023-04-21T11:16:24.947Z,49.2
2023-04-21T11:18:08.335Z,49.2
2023-04-21T11:19:51.743Z,49.1
2023-04-21T11:21:35.136Z,49.1
2023-04-21T11:23:18.538Z,49.1
2023-04-21T11:25:01.980Z,49.1
2023-04-21T11:26:45.332Z,49.1
2023-04-21T11:31:54.572Z,49.4
2023-04-21T11:33:37.986Z,49.4
2023-04-21T11:35:21.358Z,49.5
2023-04-21T11:37:04.753Z,49.4
2023-04-21T11:38:48.145Z,49.4
2023-04-21T11:40:31.556Z,49.2
2023-04-21T11:42:14.948Z,48.8
2023-04-21T11:47:24.235Z,47.9
2023-04-21T11:49:07.592Z,48
2023-04-21T11:50:50.989Z,48.2
2023-04-21T11:52:34.426Z,48.2
2023-04-21T11:54:17.790Z,48.1
2023-04-21T11:56:01.178Z,48.2
2023-04-21T11:57:44.567Z,48.2
2023-04-21T11:59:27.997Z,48.2
2023-04-21T12:02:54.430Z,48.2
2023-04-21T12:04:37.861Z,48.2
2023-04-21T12:06:21.225Z,48.2
2023-04-21T12:08:04.674Z,48.2
2023-04-21T12:09:48.076Z,48.2
2023-04-21T12:11:31.452Z,48.2
2023-04-21T12:13:14.857Z,48.2
2023-04-21T12:18:24.088Z,48.3
2023-04-21T12:20:07.490Z,48.3
2023-04-21T12:21:50.919Z,48.3
2023-04-21T12:23:34.267Z,48.3
2023-04-21T12:25:17.708Z,48.3
2023-04-21T12:27:01.139Z,48.3
2023-04-21T12:28:44.460Z,48.3
2023-04-21T12:33:53.756Z,48.3
2023-04-21T12:35:37.083Z,48.4
2023-04-21T12:37:20.520Z,48.4
2023-04-21T12:39:03.908Z,48.4
2023-04-21T12:40:47.237Z,48.4
2023-04-21T12:42:30.671Z,48.6
2023-04-21T12:44:14.065Z,48.5
2023-04-21T12:47:40.634Z,48.8
2023-04-21T12:49:23.913Z,48.9
2023-04-21T12:51:07.302Z,48.9
2023-04-21T12:52:50.753Z,48.9
2023-04-21T12:54:34.090Z,48.9
2023-04-21T12:56:17.499Z,48.9
2023-04-21T12:58:00.883Z,48.9
2023-04-21T12:59:44.283Z,48.9
2023-04-21T13:01:27.979Z,48.9
2023-04-21T13:03:11.397Z,48.9
2023-04-21T13:04:54.918Z,48.9
2023-04-21T13:06:38.222Z,49
2023-04-21T13:08:21.572Z,49
2023-04-21T13:10:05.043Z,49
2023-04-21T13:11:48.466Z,49
2023-04-21T13:13:31.755Z,49
2023-04-21T13:15:15.534Z,49
2023-04-21T13:16:58.872Z,49
2023-04-21T13:18:42.280Z,49.2
2023-04-21T13:20:25.671Z,49.2
2023-04-21T13:22:09.132Z,49.1
2023-04-21T13:23:52.447Z,49
2023-04-21T13:25:35.883Z,49
2023-04-21T13:27:19.238Z,49
2023-04-21T13:29:02.939Z,49.1
2023-04-21T13:30:46.335Z,49.3
2023-04-21T13:32:29.751Z,49
2023-04-21T13:34:13.121Z,49.2
2023-04-21T13:35:56.520Z,49.4
2023-04-21T13:37:39.920Z,49.3
2023-04-21T13:39:23.353Z,49.4
2023-04-21T13:42:49.794Z,49.5
2023-04-21T13:44:33.194Z,49.6
2023-04-21T13:46:16.600Z,49.7
2023-04-21T13:47:59.983Z,49.6
2023-04-21T13:49:43.366Z,49.7
2023-04-21T13:51:26.772Z,49.7
2023-04-21T13:53:10.161Z,49.8
2023-04-21T13:54:53.563Z,49.7
2023-04-21T13:58:20.062Z,49.7
2023-04-21T14:00:03.450Z,49.7
2023-04-21T14:01:46.825Z,49.7
2023-04-21T14:03:30.220Z,49.5
2023-04-21T14:05:13.614Z,49.5
2023-04-21T14:06:57.015Z,49.4
2023-04-21T14:08:40.402Z,49.4
2023-04-21T14:10:23.812Z,49.3
2023-04-21T14:12:07.503Z,49.3
2023-04-21T14:13:50.894Z,49.3
2023-04-21T14:15:34.311Z,49.3
2023-04-21T14:17:17.699Z,49.2
2023-04-21T14:19:01.100Z,49.2
2023-04-21T14:20:44.494Z,49.2
2023-04-21T14:22:27.885Z,49.2
2023-04-21T14:24:11.449Z,49.1
2023-04-21T14:25:55.044Z,49.2
2023-04-21T14:27:38.489Z,49.6
2023-04-21T14:29:21.883Z,49.4
2023-04-21T14:31:05.321Z,49.2
2023-04-21T14:32:48.600Z,49.2
2023-04-21T14:34:31.962Z,49.2
2023-04-21T14:36:15.506Z,49.3
2023-04-21T14:37:58.803Z,49.3
2023-04-21T14:41:25.316Z,49.3
2023-04-21T14:43:08.677Z,49.3
2023-04-21T14:44:52.190Z,49.3
2023-04-21T14:46:35.429Z,49.1
2023-04-21T14:48:18.861Z,49
2023-04-21T14:50:02.349Z,49.1
2023-04-21T14:51:45.603Z,49.1
2023-04-21T14:53:29.014Z,49.2
2023-04-21T14:55:12.764Z,49.3
2023-04-21T14:56:56.159Z,49.5
2023-04-21T14:58:39.662Z,49.6
2023-04-21T15:00:22.952Z,49.7
2023-04-21T15:02:06.293Z,50
2023-04-21T15:03:49.810Z,49.3
2023-04-21T15:05:33.075Z,46.7
2023-04-21T15:07:16.487Z,45
2023-04-21T15:10:42.959Z,44.1
2023-04-21T15:12:26.347Z,44
2023-04-21T15:14:09.796Z,43.8
2023-04-21T15:15:53.262Z,43.7
2023-04-21T15:17:36.591Z,43.8
2023-04-21T15:19:19.928Z,43.8
2023-04-21T15:21:03.332Z,43.8
2023-04-21T15:22:46.752Z,43.8
2023-04-21T15:27:56.049Z,43.7
2023-04-21T15:29:39.384Z,43.8
2023-04-21T15:31:22.830Z,43.8
2023-04-21T15:33:06.206Z,44
2023-04-21T15:34:49.645Z,44
2023-04-21T15:36:32.928Z,44.1
2023-04-21T15:38:16.338Z,44.1
2023-04-21T15:39:59.744Z,44.3
2023-04-21T15:43:26.201Z,44.5
2023-04-21T15:45:09.711Z,44.5
2023-04-21T15:46:53.049Z,44.5
2023-04-21T15:50:19.810Z,44.6
2023-04-21T15:52:03.201Z,44.8
2023-04-21T15:53:46.658Z,44.9
2023-04-21T15:55:29.994Z,45
2023-04-21T16:00:39.344Z,45.1
2023-04-21T16:02:22.624Z,45.2
2023-04-21T16:04:06.056Z,45.2
2023-04-21T16:05:49.421Z,45.3
2023-04-21T16:07:32.892Z,45.4
2023-04-21T16:09:16.201Z,45.4
2023-04-21T16:10:59.630Z,45.5
2023-04-21T16:12:43.034Z,45.5
2023-04-21T16:16:09.487Z,45.6
2023-04-21T16:17:52.872Z,45.7
2023-04-21T16:19:36.284Z,45.8
2023-04-21T16:21:19.665Z,45.9
2023-04-21T16:23:03.087Z,45.9
2023-04-21T16:24:46.462Z,45.8
2023-04-21T16:26:29.918Z,45.9
2023-04-21T16:28:13.389Z,45.9
2023-04-21T16:31:39.766Z,46
2023-04-21T16:33:23.163Z,46
2023-04-21T16:35:06.503Z,46.1
2023-04-21T16:36:50.006Z,46.1
2023-04-21T16:38:33.293Z,46.1
2023-04-21T16:40:16.708Z,46.1
2023-04-21T16:42:00.168Z,46.2
2023-04-21T16:43:43.515Z,46.2
2023-04-21T16:47:09.996Z,46.4
2023-04-21T16:48:53.417Z,46.3
2023-04-21T16:50:36.877Z,46.3
2023-04-21T16:52:20.148Z,46.4
2023-04-21T16:54:03.551Z,46.4
2023-04-21T16:55:46.949Z,46.4
2023-04-21T16:57:30.393Z,46.5
2023-04-21T16:59:13.837Z,46.6
2023-04-21T17:00:57.258Z,46.6
2023-04-21T17:02:40.937Z,46.6
2023-04-21T17:04:24.234Z,46.6
2023-04-21T17:06:07.731Z,46.6
2023-04-21T17:07:51.073Z,46.7
2023-04-21T17:09:34.440Z,46.8
2023-04-21T17:11:17.966Z,46.9
2023-04-21T17:13:01.225Z,46.9
2023-04-21T17:14:44.615Z,47
2023-04-21T17:19:53.853Z,47.2
2023-04-21T17:21:37.375Z,47.3
2023-04-21T17:23:20.698Z,47.4
2023-04-21T17:25:04.088Z,47.5
2023-04-21T17:26:47.436Z,47.7
2023-04-21T17:28:30.846Z,47.5
2023-04-21T17:30:14.263Z,47.5
2023-04-21T17:31:57.609Z,47.6
2023-04-21T17:33:41.315Z,47.7
2023-04-21T17:35:24.714Z,47.7
2023-04-21T17:37:08.109Z,47.7
2023-04-21T17:38:51.517Z,47.7
2023-04-21T17:40:34.890Z,47.7
2023-04-21T17:42:18.318Z,47.8
2023-04-21T17:44:01.687Z,47.8
2023-04-21T17:45:45.094Z,47.8
2023-04-21T17:49:11.744Z,47.9
2023-04-21T17:50:55.028Z,47.9
2023-04-21T17:52:38.352Z,48
2023-04-21T17:54:21.881Z,48
2023-04-21T17:56:05.153Z,48
2023-04-21T17:57:48.546Z,48
2023-04-21T17:59:31.955Z,48
2023-04-21T18:01:15.365Z,48.1
2023-04-21T18:02:59.051Z,48.1
2023-04-21T18:04:42.435Z,48.1
2023-04-21T18:06:25.831Z,48.1
2023-04-21T18:08:09.276Z,48.1
2023-04-21T18:09:52.623Z,48.2
2023-04-21T18:11:36.084Z,48.2
2023-04-21T18:13:19.432Z,48.2
2023-04-21T18:15:02.819Z,48.2
2023-04-21T18:18:29.356Z,48.3
2023-04-21T18:20:12.688Z,48.3
2023-04-21T18:21:56.083Z,48.4
2023-04-21T18:23:39.479Z,48.4
2023-04-21T18:25:22.872Z,48.3
2023-04-21T18:27:06.291Z,48.3
2023-04-21T18:28:49.654Z,48.4
2023-04-21T18:30:33.074Z,48.5
2023-04-21T18:32:16.758Z,48.6
2023-04-21T18:34:00.300Z,49
2023-04-21T18:35:43.567Z,48.8
2023-04-21T18:37:26.962Z,49.1
2023-04-21T18:39:10.367Z,49.1
2023-04-21T18:40:53.753Z,49.2
2023-04-21T18:42:37.127Z,49.1
2023-04-21T18:44:20.524Z,49.4
2023-04-21T18:47:47.017Z,49.2
2023-04-21T18:49:30.440Z,49
2023-04-21T18:51:13.791Z,49
2023-04-21T18:52:57.203Z,49
2023-04-21T18:54:40.601Z,49
2023-04-21T18:56:23.986Z,49
2023-04-21T18:58:07.409Z,49.1
2023-04-21T18:59:50.786Z,49.1
2023-04-21T19:01:34.484Z,49.1
2023-04-21T19:03:17.889Z,49.1
2023-04-21T19:05:01.290Z,49.1
2023-04-21T19:06:44.677Z,49.1
2023-04-21T19:08:28.075Z,49.1
2023-04-21T19:10:11.473Z,49.1
2023-04-21T19:11:54.921Z,49.1
2023-04-21T19:13:38.291Z,49.1
2023-04-21T19:17:04.730Z,49.3
2023-04-21T19:18:48.143Z,49.2
2023-04-21T19:20:31.557Z,49.2
2023-04-21T19:22:14.912Z,49.2
2023-04-21T19:23:58.330Z,49.2
2023-04-21T19:25:41.706Z,49.2
2023-04-21T19:27:25.120Z,49.2
2023-04-21T19:29:08.546Z,49.2
2023-04-21T19:32:34.992Z,49.2
2023-04-21T19:34:18.392Z,49.2
2023-04-21T19:36:01.823Z,49.2
2023-04-21T19:37:45.183Z,49.2
2023-04-21T19:39:28.568Z,49.2
2023-04-21T19:41:11.965Z,49.2
2023-04-21T19:42:55.348Z,49.2
2023-04-21T19:48:04.604Z,49.2
2023-04-21T19:49:48.001Z,49.2
2023-04-21T19:51:31.392Z,49.2
2023-04-21T19:53:14.782Z,49.2
2023-04-21T19:54:58.238Z,49.2
2023-04-21T19:56:41.579Z,49.2
2023-04-21T19:58:24.986Z,49.2
2023-04-21T20:00:08.368Z,49.2
2023-04-21T20:01:52.083Z,49.2
2023-04-21T20:03:35.463Z,49.2
2023-04-21T20:07:02.279Z,49.2
2023-04-21T20:08:45.650Z,49.2
2023-04-21T20:10:29.072Z,49.2
2023-04-21T20:12:12.456Z,49.2
2023-04-21T20:13:55.846Z,49.3
2023-04-21T20:17:22.325Z,49.3
2023-04-21T20:19:05.723Z,49.3
2023-04-21T20:20:49.112Z,49.3
2023-04-21T20:22:32.529Z,49.3
2023-04-21T20:24:15.914Z,49.3
2023-04-21T20:25:59.310Z,49.3
2023-04-21T20:27:42.717Z,49.3
2023-04-21T20:29:26.108Z,49.3
2023-04-21T20:32:52.572Z,49.3
2023-04-21T20:34:35.974Z,49.3
2023-04-21T20:36:19.353Z,49.3
2023-04-21T20:38:02.774Z,49.3
2023-04-21T20:39:46.151Z,49.3
2023-04-21T20:41:29.546Z,49.3
2023-04-21T20:43:12.946Z,49.3
2023-04-21T20:44:56.332Z,49.3
2023-04-21T20:50:05.599Z,49.3
2023-04-21T20:51:48.971Z,49.3
2023-04-21T20:53:32.374Z,49.3
2023-04-21T20:55:15.776Z,49.3
2023-04-21T20:56:59.166Z,49.3
2023-04-21T20:58:42.600Z,49.3
2023-04-21T21:00:25.985Z,49.3
2023-04-21T21:05:35.214Z,49.3
2023-04-21T21:07:18.604Z,49.3
2023-04-21T21:09:02.012Z,49.3
2023-04-21T21:10:45.401Z,49.3
2023-04-21T21:12:28.799Z,49.3
2023-04-21T21:14:12.216Z,49.3
2023-04-21T21:15:55.593Z,49.3
2023-04-21T21:21:04.842Z,49.3
2023-04-21T21:22:48.239Z,49.3
2023-04-21T21:24:31.620Z,49.4
2023-04-21T21:26:15.022Z,49.5
2023-04-21T21:27:58.417Z,49.5
2023-04-21T21:29:41.843Z,49.6
2023-04-21T21:31:25.208Z,49.6
2023-04-21T21:34:51.685Z,49.4
2023-04-21T21:36:35.086Z,49.4
2023-04-21T21:38:18.468Z,49.4
2023-04-21T21:40:01.874Z,49.4
2023-04-21T21:41:45.279Z,49.4
2023-04-21T21:43:28.672Z,49.4
2023-04-21T21:45:12.064Z,49.3
2023-04-21T21:46:55.464Z,49.3
2023-04-21T21:48:39.161Z,49.3
2023-04-21T21:50:22.559Z,49.3
2023-04-21T21:52:05.950Z,49.2
2023-04-21T21:53:49.357Z,49.2
2023-04-21T21:55:32.741Z,49.2
2023-04-21T21:57:16.147Z,49.2
2023-04-21T21:58:59.540Z,49.2
2023-04-21T22:00:42.940Z,49.2
2023-04-21T22:04:09.493Z,49.1
2023-04-21T22:05:52.809Z,49.2
2023-04-21T22:07:36.290Z,49.1
2023-04-21T22:09:19.620Z,49.1
2023-04-21T22:11:02.997Z,49.1
2023-04-21T22:12:46.390Z,49.2
2023-04-21T22:14:29.799Z,49.1
2023-04-21T22:16:13.175Z,49.2
2023-04-21T22:19:39.673Z,49.1
2023-04-21T22:21:23.065Z,49.1
2023-04-21T22:23:06.451Z,49.2
2023-04-21T22:24:49.858Z,49.1
2023-04-21T22:26:33.249Z,49.1
2023-04-21T22:28:16.637Z,49.1
2023-04-21T22:30:00.038Z,49.1
2023-04-21T22:31:43.435Z,49.1
2023-04-21T22:33:27.170Z,49.2
2023-04-21T22:35:10.526Z,49.1
2023-04-21T22:36:53.920Z,49.2
2023-04-21T22:38:37.311Z,49.1
2023-04-21T22:40:20.716Z,49.1
2023-04-21T22:42:04.120Z,49.2
2023-04-21T22:43:47.540Z,49.1
2023-04-21T22:45:30.935Z,49.2
2023-04-21T22:50:40.773Z,49.2
2023-04-21T22:52:24.180Z,49.2
2023-04-21T22:54:07.583Z,49.2
2023-04-21T22:55:50.968Z,49.2
2023-04-21T22:57:34.374Z,49.2
2023-04-21T22:59:17.779Z,49.2
2023-04-21T23:01:01.156Z,49.2
2023-04-21T23:02:44.861Z,49.2
2023-04-21T23:04:28.275Z,49.2
2023-04-21T23:06:11.663Z,49.2
2023-04-21T23:07:55.042Z,49.2
2023-04-21T23:09:38.450Z,49.2
2023-04-21T23:11:21.838Z,49.2
2023-04-21T23:13:05.253Z,49.2
2023-04-21T23:14:48.651Z,49.2
2023-04-21T23:16:32.344Z,49.2
2023-04-21T23:18:18.819Z,49.2
2023-04-21T23:19:59.151Z,49.3
2023-04-21T23:21:42.526Z,49.3
2023-04-21T23:23:25.943Z,49.2
2023-04-21T23:25:09.329Z,49.2
2023-04-21T23:26:52.715Z,49.2
2023-04-21T23:28:36.128Z,49.3
2023-04-21T23:30:19.816Z,49.3
2023-04-21T23:32:03.219Z,49.2
2023-04-21T23:33:46.611Z,49.2
2023-04-21T23:35:30.006Z,49.3
2023-04-21T23:37:13.398Z,49.3
2023-04-21T23:38:56.813Z,49.2
2023-04-21T23:40:40.185Z,49.2
2023-04-21T23:42:23.615Z,49.2
2023-04-21T23:45:50.078Z,49.2
2023-04-21T23:47:33.453Z,49.2
2023-04-21T23:49:16.867Z,49.3
2023-04-21T23:51:00.348Z,49.3
2023-04-21T23:52:43.659Z,49.3
2023-04-21T23:54:27.057Z,49.3
2023-04-21T23:56:10.475Z,49.2
